• Join FlightAware (Why Join?)
  • Login
  • US Flag 
12:29PM EDT


 

Airport Tracker/Info


-or-


 

Live Flight TrackerFlight Track Log ✈ AAL667 ✈ 07-May-2013 ✈ KIND - KDFW

Flight Track Log - Related Links

Times and Time Zones

All times are in EDT time to prevent confusion due to time zone crossing. See the AAL667 flight status page for this flight to view local times or setup timezone preferences in your user account.

Time Position Orientation Groundspeed Altitude Reporting Facility
EDT Latitude Longitude Course Direction KTS MPH feet Rate Location/Type
07:35PM 39.7333 -86.2833 252° West 175 201 1,400  Level Indianapolis TRACON
07:36PM 39.7833 -86.2167 46° Northeast 214 246 4,400 2,400 Climbing Indianapolis TRACON
07:37PM 39.6131 -86.6849 256° West  Level FlightAware Approximate
07:37PM 39.8333 -86.2333 346° North 239 275 7,000  Level Indianapolis TRACON
07:38PM 39.5858 -86.8216 255° West  Level FlightAware Approximate
07:39PM 39.5493 -86.9529 252° West  Level FlightAware Approximate
07:39PM 39.8172 -86.4303 264° West 287 330 11,100  Level Indianapolis Center
07:40PM 39.5158 -87.0871 252° West  Level FlightAware Approximate
07:40PM 39.8089 -86.5531 265° West 331 381 12,800  Level Indianapolis Center
07:41PM 39.7947 -86.6858 262° West 364 419 15,800 2,640 Climbing Indianapolis Center
07:42PM 39.7847 -86.8231 265° West 378 435 18,300 2,100 Climbing Indianapolis Center
07:43PM 39.7714 -86.9608 263° West 385 443 20,200 1,920 Climbing Indianapolis Center
07:44PM 39.7583 -87.1053 263° West 400 460 22,300 2,040 Climbing Indianapolis Center
07:45PM 39.7428 -87.2836 264° West 414 476 24,400 1,740 Climbing Indianapolis Center
07:46PM 39.7286 -87.4350 263° West 424 488 26,000 1,200 Climbing Indianapolis Center
07:47PM 39.7142 -87.5939 263° West 441 507 27,000 1,260 Climbing Indianapolis Center
07:48PM 39.6975 -87.7578 263° West 457 526 28,600 1,620 Climbing Indianapolis Center
07:49PM 39.6817 -87.9189 263° West 455 524 30,400 1,500 Climbing Indianapolis Center
07:50PM 39.6658 -88.0781 263° West 450 518 31,800 1,440 Climbing Indianapolis Center
07:51PM 39.6506 -88.2275 262° West 444 511 33,100 1,140 Climbing Kansas City Center
07:52PM 39.6353 -88.3850 263° West 441 507 33,900 420 Climbing Kansas City Center
07:53PM 39.6197 -88.5389 263° West 435 501 34,000  Climbing Kansas City Center
07:54PM 39.6014 -88.7044 262° West 435 501 34,000  Level Kansas City Center
07:55PM 39.5497 -88.8353 243° Southwest 431 496 34,100  Climbing Kansas City Center
07:56PM 39.4692 -88.9544 229° Southwest 437 503 34,000 -60 Descending Kansas City Center
07:57PM 39.4003 -89.0739 233° Southwest 433 498 34,000  Level Kansas City Center
07:58PM 39.3289 -89.1989 234° Southwest 432 497 34,000  Level Kansas City Center
07:59PM 39.2564 -89.3244 233° Southwest 435 501 34,000  Level Kansas City Center
08:00PM 39.1700 -89.4739 233° Southwest 435 501 34,000  Level Kansas City Center
08:01PM 39.0936 -89.6075 234° Southwest 434 499 34,000  Level Kansas City Center
08:02PM 39.0222 -89.7311 233° Southwest 433 498 34,000  Level Kansas City Center
08:03PM 38.9506 -89.8528 233° Southwest 429 494 34,000  Level Kansas City Center
08:05PM 38.8831 -89.9669 233° Southwest 429 494 34,000  Level Kansas City Center
08:06PM 38.8025 -90.1064 233° Southwest 427 491 34,000  Level Kansas City Center
08:07PM 38.7303 -90.2264 232° Southwest 425 489 34,000  Level Kansas City Center
08:08PM 38.6567 -90.3478 232° Southwest 428 493 34,000  Level Kansas City Center
08:09PM 38.5836 -90.4714 233° Southwest 436 502 34,000  Level Kansas City Center
08:10PM 38.5097 -90.5917 232° Southwest 432 497 34,000  Level Kansas City Center
08:11PM 38.4433 -90.7019 232° Southwest 426 490 34,000  Level Kansas City Center
08:12PM 38.3567 -90.8433 232° Southwest 423 487 34,000  Level Kansas City Center
08:13PM 38.2831 -90.9617 232° Southwest 426 490 34,000  Level Kansas City Center
08:14PM 38.2100 -91.0803 232° Southwest 427 491 34,000  Level Kansas City Center
08:15PM 38.1314 -91.2064 232° Southwest 420 483 34,000  Level Kansas City Center
08:16PM 38.0592 -91.3247 232° Southwest 420 483 34,000  Level Kansas City Center
08:17PM 37.9856 -91.4414 231° Southwest 421 484 34,000  Level Kansas City Center
08:18PM 37.9119 -91.5600 232° Southwest 423 487 34,000  Level Kansas City Center
08:19PM 37.8394 -91.6781 232° Southwest 423 487 34,000  Level Kansas City Center
08:20PM 37.7656 -91.7942 231° Southwest 421 484 34,000  Level Kansas City Center
08:21PM 37.6936 -91.9097 232° Southwest 416 479 34,000  Level Kansas City Center
08:22PM 37.6203 -92.0261 232° Southwest 418 481 34,000  Level Kansas City Center
08:23PM 37.5461 -92.1417 231° Southwest 419 482 34,000  Level Kansas City Center
08:24PM 37.4731 -92.2569 231° Southwest 418 481 34,000  Level Kansas City Center
08:25PM 37.3850 -92.3936 231° Southwest 415 478 34,000  Level Kansas City Center
08:26PM 37.3122 -92.5047 231° Southwest 410 472 34,000  Level Kansas City Center
08:27PM 37.2400 -92.6172 231° Southwest 412 474 34,000  Level Kansas City Center
08:28PM 37.1672 -92.7286 231° Southwest 412 474 34,000  Level Kansas City Center
08:29PM 37.0942 -92.8403 231° Southwest 413 475 34,000  Level Kansas City Center
08:30PM 37.0208 -92.9533 231° Southwest 415 478 34,000  Level Kansas City Center
08:31PM 36.9456 -93.0669 230° Southwest 420 483 34,000  Level Kansas City Center
08:32PM 36.8633 -93.1953 231° Southwest 424 488 34,000  Level Kansas City Center
08:33PM 36.8253 -93.2597 234° Southwest 419 482 34,000  Level Memphis Center
08:34PM 36.7519 -93.3686 230° Southwest 419 482 34,000  Level Memphis Center
08:34PM 36.7175 -93.4169 228° Southwest 415 478 34,000  Level Kansas City Center
08:35PM 36.6242 -93.4978 215° Southwest 417 480 34,000  Level Kansas City Center
08:36PM 36.5664 -93.5347 207° Southwest 409 471 34,000  Level Memphis Center
08:37PM 36.4686 -93.6083 211° Southwest 414 476 34,000  Level Memphis Center
08:38PM 36.3622 -93.6892 211° Southwest 414 476 34,000  Level Memphis Center
08:39PM 36.2750 -93.7550 211° Southwest 419 482 34,000  Level Memphis Center
08:40PM 36.1708 -93.8331 211° Southwest 419 482 34,000  Level Memphis Center
08:41PM 36.0747 -93.9061 212° Southwest 413 475 34,000  Level Memphis Center
08:42PM 35.9728 -93.9786 210° Southwest 420 483 34,000 -660 Level Memphis Center
08:43PM 35.8831 -94.0489 212° Southwest 425 489 32,700 -1,020 Descending Memphis Center
08:44PM 35.7806 -94.1261 211° Southwest 425 489 32,000 -360 Descending Memphis Center
08:45PM 35.6697 -94.2081 211° Southwest 430 495 32,000  Level Memphis Center
08:46PM 35.5675 -94.2772 209° Southwest 430 495 32,000  Level Memphis Center
08:47PM 35.4606 -94.3539 210° Southwest 436 502 32,000  Level Memphis Center
08:48PM 35.3558 -94.4353 212° Southwest 441 507 32,000  Level Memphis Center
08:49PM 35.2533 -94.5042 209° Southwest 436 502 32,000  Level Memphis Center
08:50PM 35.1508 -94.5803 211° Southwest 436 502 32,000  Level Memphis Center
08:51PM 35.0261 -94.6753 212° Southwest 437 503 32,000  Level Fort Worth Center
08:52PM 34.9381 -94.7617 219° Southwest 429 494 32,000  Level Fort Worth Center
08:53PM 34.8506 -94.8581 222° Southwest 424 488 32,000 -60 Level Fort Worth Center
08:54PM 34.7647 -94.9517 222° Southwest 424 488 31,900 -540 Descending Fort Worth Center
08:55PM 34.6769 -95.0450 221° Southwest 424 488 31,000 -1,200 Descending Fort Worth Center
08:56PM 34.5847 -95.1408 221° Southwest 430 495 29,600 -1,500 Descending Fort Worth Center
08:57PM 34.4925 -95.2392 221° Southwest 435 501 28,100 -1,620 Descending Fort Worth Center
08:58PM 34.4025 -95.3344 221° Southwest 441 507 26,400 -1,560 Descending Fort Worth Center
08:59PM 34.3081 -95.4347 221° Southwest 446 513 25,000 -1,200 Descending Fort Worth Center
09:00PM 34.2178 -95.5297 221° Southwest 446 513 24,100 -540 Descending Fort Worth Center
09:01PM 34.1169 -95.6372 221° Southwest 446 513 24,000 -60 Descending Fort Worth Center
09:02PM 34.0367 -95.7217 221° Southwest 440 506 24,000  Level Fort Worth Center
09:03PM 33.9461 -95.8186 222° Southwest 434 499 24,000 -300 Level Fort Worth Center
09:04PM 33.8494 -95.9228 222° Southwest 434 499 23,500 -1,560 Descending Fort Worth Center
09:05PM 33.7650 -96.0119 221° Southwest 423 487 20,900 -2,700 Descending Fort Worth Center
09:06PM 33.6825 -96.1031 223° Southwest 411 473 18,200 -2,580 Descending Fort Worth Center
09:07PM 33.5997 -96.1889 221° Southwest 411 473 15,700 -2,640 Descending Fort Worth Center
09:08PM 33.5192 -96.2747 222° Southwest 405 466 13,000 -2,280 Descending Fort Worth Center
09:09PM 33.4467 -96.3531 222° Southwest 380 437 11,200 -1,140 Descending Fort Worth Center
09:10PM 33.3847 -96.4208 222° Southwest 323 372 10,800 -720 Descending Fort Worth Center
09:11PM 33.3519 -96.5058 245° Southwest 291 335 9,800 -1,260 Descending Fort Worth Center
09:12PM 33.3211 -96.5881 246° West 278 320 8,300 -1,560 Descending Fort Worth Center
09:13PM 33.2883 -96.6681 244° Southwest 278 320 6,700 -1,440 Descending Fort Worth Center
09:14PM 33.2511 -96.7403 238° Southwest 268 308 5,500 -900 Descending Fort Worth Center
09:15PM 33.2036 -96.8028 228° Southwest 257 296 5,000 -300 Descending Fort Worth Center
09:16PM 33.1600 -96.8650 230° Southwest 252 290 5,000 -120 Level Fort Worth Center
09:17PM 33.1122 -96.9297 229° Southwest 262 302 4,800 -240 Descending Fort Worth Center